createdAt,value
2018-11-10T00:00:18.895Z,8.40
2018-11-10T00:02:49.047Z,8.40
2018-11-10T00:05:30.317Z,8.40
2018-11-10T00:07:59.516Z,8.40
2018-11-10T00:10:28.634Z,8.40
2018-11-10T00:12:57.774Z,8.50
2018-11-10T00:15:26.927Z,8.50
2018-11-10T00:17:56.066Z,8.50
2018-11-10T00:20:25.245Z,8.50
2018-11-10T00:22:54.387Z,8.50
2018-11-10T00:25:23.551Z,8.50
2018-11-10T00:27:52.695Z,8.50
2018-11-10T00:30:21.861Z,8.50
2018-11-10T00:32:51.006Z,8.50
2018-11-10T00:35:20.199Z,8.50
2018-11-10T00:37:49.345Z,8.50
2018-11-10T00:40:18.507Z,8.50
2018-11-10T00:42:47.676Z,8.50
2018-11-10T00:45:16.861Z,8.60
2018-11-10T00:47:46.039Z,8.60
2018-11-10T00:50:15.217Z,8.60
2018-11-10T00:52:44.405Z,8.60
2018-11-10T00:55:14.483Z,8.60
2018-11-10T00:57:43.660Z,8.60
2018-11-10T01:00:13.507Z,8.60
2018-11-10T01:02:43.951Z,8.60
2018-11-10T01:05:13.178Z,8.60
2018-11-10T01:07:42.487Z,8.60
2018-11-10T01:10:13.057Z,8.60
2018-11-10T01:12:42.589Z,8.50
2018-11-10T01:15:14.175Z,8.50
2018-11-10T01:17:49.711Z,8.50
2018-11-10T01:20:18.875Z,8.50
2018-11-10T01:22:48.043Z,8.50
2018-11-10T01:25:17.190Z,8.50
2018-11-10T01:27:46.404Z,8.40
2018-11-10T01:30:16.561Z,8.40
2018-11-10T01:32:46.297Z,8.40
2018-11-10T01:35:15.990Z,8.40
2018-11-10T01:37:45.196Z,8.40
2018-11-10T01:40:14.999Z,8.40
2018-11-10T01:42:44.622Z,8.30
2018-11-10T01:45:15.340Z,8.30
2018-11-10T01:47:44.973Z,8.30
2018-11-10T01:50:14.243Z,8.30
2018-11-10T01:52:43.765Z,8.30
2018-11-10T01:55:13.254Z,8.30
2018-11-10T01:57:43.088Z,8.20
2018-11-10T02:00:18.519Z,8.30
2018-11-10T02:02:48.226Z,8.20
2018-11-10T02:05:17.927Z,8.20
2018-11-10T02:07:47.088Z,8.30
2018-11-10T02:10:16.228Z,8.30
2018-11-10T02:12:45.391Z,8.20
2018-11-10T02:15:15.946Z,8.20
2018-11-10T02:17:45.115Z,8.20
2018-11-10T02:20:15.065Z,8.20
2018-11-10T02:22:44.345Z,8.20
2018-11-10T02:25:13.764Z,8.20
2018-11-10T02:27:43.025Z,8.30
2018-11-10T02:30:12.562Z,8.30
2018-11-10T02:32:41.976Z,8.20
2018-11-10T02:35:11.567Z,8.20
2018-11-10T02:37:41.188Z,8.20
2018-11-10T02:40:12.919Z,8.20
2018-11-10T02:42:42.089Z,8.20
2018-11-10T02:45:12.548Z,8.20
2018-11-10T02:47:41.971Z,8.20
2018-11-10T02:50:11.109Z,8.20
2018-11-10T02:52:40.355Z,8.20
2018-11-10T02:55:10.365Z,8.20
2018-11-10T02:57:39.682Z,8.20
2018-11-10T03:00:10.479Z,8.20
2018-11-10T03:02:39.665Z,8.20
2018-11-10T03:05:09.407Z,8.20
2018-11-10T03:07:39.036Z,8.20
2018-11-10T03:10:09.889Z,8.30
2018-11-10T03:12:39.792Z,8.20
2018-11-10T03:15:09.998Z,8.20
2018-11-10T03:17:39.159Z,8.20
2018-11-10T03:20:11.282Z,8.20
2018-11-10T03:22:40.476Z,8.20
2018-11-10T03:25:10.051Z,8.20
2018-11-10T03:27:39.578Z,8.20
2018-11-10T03:30:08.960Z,8.20
2018-11-10T03:32:38.376Z,8.20
2018-11-10T03:35:08.479Z,8.20
2018-11-10T03:37:37.642Z,8.20
2018-11-10T03:40:09.032Z,8.20
2018-11-10T03:42:38.738Z,8.20
2018-11-10T03:45:09.395Z,8.20
2018-11-10T03:47:38.783Z,8.20
2018-11-10T03:50:08.724Z,8.20
2018-11-10T03:52:38.083Z,8.20
2018-11-10T03:55:07.894Z,8.20
2018-11-10T03:57:37.218Z,8.20
2018-11-10T04:00:09.976Z,8.20
2018-11-10T04:02:39.920Z,8.20
2018-11-10T04:05:09.702Z,8.20
2018-11-10T04:07:39.025Z,8.20
2018-11-10T04:10:08.248Z,8.20
2018-11-10T04:12:37.503Z,8.20
2018-11-10T04:15:06.807Z,8.20
2018-11-10T04:17:36.221Z,8.20
2018-11-10T04:20:06.945Z,8.20
2018-11-10T04:22:37.075Z,8.20
2018-11-10T04:25:09.559Z,8.20
2018-11-10T04:27:38.735Z,8.30
2018-11-10T04:30:09.764Z,8.20
2018-11-10T04:32:38.943Z,8.20
2018-11-10T04:35:08.656Z,8.30
2018-11-10T04:37:37.935Z,8.30
2018-11-10T04:40:08.395Z,8.20
2018-11-10T04:42:37.564Z,8.20
2018-11-10T04:45:08.275Z,8.20
2018-11-10T04:47:37.546Z,8.20
2018-11-10T04:50:08.567Z,8.20
2018-11-10T04:52:37.752Z,8.30
2018-11-10T04:55:07.871Z,8.30
2018-11-10T04:57:37.067Z,8.30
2018-11-10T05:00:09.027Z,8.30
2018-11-10T05:02:38.219Z,8.20
2018-11-10T05:05:07.944Z,8.20
2018-11-10T05:07:37.267Z,8.20
2018-11-10T05:10:07.974Z,8.20
2018-11-10T05:12:37.204Z,8.20
2018-11-10T05:15:08.039Z,8.20
2018-11-10T05:17:37.219Z,8.30
2018-11-10T05:20:06.720Z,8.30
2018-11-10T05:22:35.899Z,8.20
2018-11-10T05:25:05.419Z,8.20
2018-11-10T05:27:34.611Z,8.30
2018-11-10T05:30:04.335Z,8.20
2018-11-10T05:32:33.532Z,8.20
2018-11-10T05:35:02.713Z,8.20
2018-11-10T05:37:31.887Z,8.20
2018-11-10T05:40:01.147Z,8.30
2018-11-10T05:42:30.309Z,8.20
2018-11-10T05:44:59.522Z,8.20
2018-11-10T05:47:28.671Z,8.20
2018-11-10T05:49:57.844Z,8.20
2018-11-10T05:52:27.011Z,8.30
2018-11-10T05:54:56.420Z,8.30
2018-11-10T05:57:25.823Z,8.30
2018-11-10T05:59:55.008Z,8.30
2018-11-10T06:02:24.170Z,8.30
2018-11-10T06:04:53.326Z,8.30
2018-11-10T06:07:22.498Z,8.30
2018-11-10T06:09:51.863Z,8.30
2018-11-10T06:12:20.890Z,8.30
2018-11-10T06:14:50.084Z,8.30
2018-11-10T06:17:19.231Z,8.30
2018-11-10T06:19:48.390Z,8.30
2018-11-10T06:22:17.587Z,8.30
2018-11-10T06:24:46.754Z,8.30
2018-11-10T06:27:15.915Z,8.40
2018-11-10T06:29:45.088Z,8.40
2018-11-10T06:32:14.245Z,8.30
2018-11-10T06:34:43.423Z,8.40
2018-11-10T06:37:12.579Z,8.40
2018-11-10T06:39:41.762Z,8.40
2018-11-10T06:42:10.923Z,8.40
2018-11-10T06:44:40.103Z,8.40
2018-11-10T06:47:09.318Z,8.50
2018-11-10T06:49:38.427Z,8.50
2018-11-10T06:52:07.579Z,8.50
2018-11-10T06:54:36.731Z,8.50
2018-11-10T06:57:06.521Z,8.60
2018-11-10T06:59:35.732Z,8.60
2018-11-10T07:02:04.951Z,8.60
2018-11-10T07:04:34.184Z,8.60
2018-11-10T07:07:03.736Z,8.70
2018-11-10T07:09:32.981Z,8.70
2018-11-10T07:12:02.048Z,8.70
2018-11-10T07:14:31.215Z,8.70
2018-11-10T07:17:00.350Z,8.70
2018-11-10T07:19:29.601Z,8.70
2018-11-10T07:21:58.759Z,8.70
2018-11-10T07:24:27.937Z,8.70
2018-11-10T07:26:57.090Z,8.80
2018-11-10T07:29:26.268Z,8.80
2018-11-10T07:31:55.442Z,8.80
2018-11-10T07:34:24.659Z,8.90
2018-11-10T07:36:53.804Z,8.90
2018-11-10T07:39:23.059Z,8.90
2018-11-10T07:41:52.260Z,8.90
2018-11-10T07:44:21.491Z,8.90
2018-11-10T07:46:50.656Z,8.90
2018-11-10T07:49:19.904Z,8.90
2018-11-10T07:51:49.038Z,9.00
2018-11-10T07:54:18.311Z,9.00
2018-11-10T07:56:47.444Z,9.00
2018-11-10T07:59:16.681Z,9.00
2018-11-10T08:01:45.888Z,9.10
2018-11-10T08:04:15.199Z,9.20
2018-11-10T08:06:47.172Z,9.20
2018-11-10T08:09:16.348Z,9.20
2018-11-10T08:11:45.529Z,9.20
2018-11-10T08:14:14.706Z,9.20
2018-11-10T08:16:43.855Z,9.20
2018-11-10T08:19:13.336Z,9.20
2018-11-10T08:21:42.572Z,9.20
2018-11-10T08:24:11.785Z,9.20
2018-11-10T08:26:40.929Z,9.30
2018-11-10T08:29:10.107Z,9.40
2018-11-10T08:31:40.222Z,9.40
2018-11-10T08:34:09.488Z,9.40
2018-11-10T08:36:38.671Z,9.30
2018-11-10T08:39:12.567Z,9.30
2018-11-10T08:41:41.723Z,9.40
2018-11-10T08:44:11.022Z,9.50
2018-11-10T08:46:40.948Z,9.60
2018-11-10T08:49:10.195Z,9.50
2018-11-10T08:51:39.323Z,9.60
2018-11-10T08:54:08.497Z,9.50
2018-11-10T08:56:37.660Z,9.60
2018-11-10T08:59:06.872Z,9.60
2018-11-10T09:01:35.999Z,9.60
2018-11-10T09:04:05.739Z,9.60
2018-11-10T09:06:34.924Z,9.70
2018-11-10T09:09:05.061Z,9.70
2018-11-10T09:11:34.227Z,9.70
2018-11-10T09:14:03.366Z,9.70
2018-11-10T09:16:32.547Z,9.70
2018-11-10T09:19:03.093Z,9.70
2018-11-10T09:21:32.274Z,9.80
2018-11-10T09:24:01.440Z,9.80
2018-11-10T09:26:30.623Z,9.80
2018-11-10T09:28:59.815Z,9.70
2018-11-10T09:31:29.223Z,9.80
2018-11-10T09:33:58.366Z,9.90
2018-11-10T09:36:27.581Z,10.00
2018-11-10T09:38:56.752Z,10.00
2018-11-10T09:41:25.937Z,10.00
2018-11-10T09:43:55.112Z,10.00
2018-11-10T09:46:24.320Z,10.00
2018-11-10T09:48:53.494Z,10.10
2018-11-10T09:51:22.725Z,10.20
2018-11-10T09:53:51.851Z,10.30
2018-11-10T09:56:21.026Z,10.40
2018-11-10T09:58:50.282Z,10.40
2018-11-10T10:01:19.568Z,10.40
2018-11-10T10:03:48.627Z,10.40
2018-11-10T10:06:17.804Z,10.50
2018-11-10T10:08:47.028Z,10.70
2018-11-10T10:11:16.165Z,10.80
2018-11-10T10:13:45.323Z,10.80
2018-11-10T10:16:14.599Z,10.80
2018-11-10T10:18:43.693Z,10.80
2018-11-10T10:21:12.887Z,10.80
2018-11-10T10:23:42.047Z,10.90
2018-11-10T10:26:11.356Z,10.90
2018-11-10T10:28:40.542Z,10.80
2018-11-10T10:31:09.768Z,10.70
2018-11-10T10:33:38.943Z,10.80
2018-11-10T10:36:08.120Z,10.90
2018-11-10T10:38:37.319Z,10.70
2018-11-10T10:41:06.770Z,10.80
2018-11-10T10:43:35.918Z,10.90
2018-11-10T10:46:05.111Z,10.90
2018-11-10T10:48:34.378Z,11.00
2018-11-10T10:51:03.483Z,11.00
2018-11-10T10:53:32.627Z,11.10
2018-11-10T10:56:01.931Z,11.10
2018-11-10T10:58:31.011Z,11.20
2018-11-10T11:01:05.434Z,11.10
2018-11-10T11:03:39.935Z,11.10
2018-11-10T11:06:09.107Z,11.20
2018-11-10T11:08:38.275Z,11.30
2018-11-10T11:11:07.445Z,11.40
2018-11-10T11:13:36.631Z,11.30
2018-11-10T11:16:06.137Z,11.40
2018-11-10T11:18:35.293Z,11.40
2018-11-10T11:21:04.463Z,11.40
2018-11-10T11:23:33.629Z,11.50
2018-11-10T11:26:02.828Z,11.60
2018-11-10T11:28:31.979Z,11.50
2018-11-10T11:31:01.166Z,11.60
2018-11-10T11:33:30.327Z,11.80
2018-11-10T11:35:59.553Z,11.80
2018-11-10T11:38:28.771Z,12.10
2018-11-10T11:40:58.199Z,12.40
2018-11-10T11:43:27.347Z,12.60
2018-11-10T11:45:56.578Z,12.80
2018-11-10T11:48:25.803Z,12.90
2018-11-10T11:50:54.979Z,13.00
2018-11-10T11:53:24.157Z,13.10
2018-11-10T11:55:53.369Z,13.00
2018-11-10T11:58:22.553Z,13.30
2018-11-10T12:00:52.543Z,13.50
2018-11-10T12:03:21.713Z,13.70
2018-11-10T12:05:50.891Z,13.70
2018-11-10T12:08:20.047Z,13.90
2018-11-10T12:10:49.239Z,14.10
2018-11-10T12:13:18.419Z,14.10
2018-11-10T12:15:47.625Z,13.80
2018-11-10T12:18:16.771Z,13.90
2018-11-10T12:20:45.930Z,13.70
2018-11-10T12:23:15.123Z,13.70
2018-11-10T12:25:44.289Z,13.70
2018-11-10T12:28:13.472Z,13.80
2018-11-10T12:30:42.619Z,13.80
2018-11-10T12:33:11.800Z,13.60
2018-11-10T12:35:40.994Z,13.70
2018-11-10T12:38:10.208Z,14.10
2018-11-10T12:40:39.360Z,14.10
2018-11-10T12:43:08.528Z,13.90
2018-11-10T12:45:37.699Z,14.20
2018-11-10T12:48:06.899Z,14.50
2018-11-10T12:50:36.100Z,14.40
2018-11-10T12:53:08.367Z,14.60
2018-11-10T12:55:37.540Z,14.70
2018-11-10T12:58:06.820Z,15.20
2018-11-10T13:00:35.988Z,16.10
2018-11-10T13:03:05.220Z,15.80
2018-11-10T13:05:34.419Z,16.50
2018-11-10T13:08:03.651Z,16.60
2018-11-10T13:10:32.837Z,16.40
2018-11-10T13:13:02.103Z,16.50
2018-11-10T13:15:31.271Z,16.40
2018-11-10T13:18:00.439Z,15.60
2018-11-10T13:20:29.591Z,16.10
2018-11-10T13:22:58.766Z,16.00
2018-11-10T13:25:27.919Z,14.80
2018-11-10T13:27:57.100Z,14.20
2018-11-10T13:30:26.266Z,14.00
2018-11-10T13:32:55.454Z,13.80
2018-11-10T13:35:24.633Z,13.70
2018-11-10T13:37:53.878Z,13.60
2018-11-10T13:40:22.999Z,13.60
2018-11-10T13:42:52.160Z,13.60
2018-11-10T13:45:21.348Z,13.60
2018-11-10T13:47:50.570Z,13.70
2018-11-10T13:50:19.744Z,13.70
2018-11-10T13:52:49.372Z,13.30
2018-11-10T13:55:18.188Z,13.20
2018-11-10T13:57:47.346Z,13.00
2018-11-10T14:00:17.913Z,13.00
2018-11-10T14:02:47.094Z,12.80
2018-11-10T14:05:16.434Z,12.80
2018-11-10T14:07:45.675Z,12.70
2018-11-10T14:10:15.853Z,12.50
2018-11-10T14:12:45.939Z,12.30
2018-11-10T14:15:15.030Z,12.20
2018-11-10T14:17:44.671Z,12.10
2018-11-10T14:20:15.800Z,11.90
2018-11-10T14:22:45.723Z,11.90
2018-11-10T14:25:15.731Z,11.80
2018-11-10T14:27:45.559Z,11.70
2018-11-10T14:30:15.966Z,11.70
2018-11-10T14:32:45.478Z,11.70
2018-11-10T14:35:14.914Z,11.70
2018-11-10T14:37:44.117Z,11.60
2018-11-10T14:40:14.704Z,11.50
2018-11-10T14:42:44.328Z,11.40
2018-11-10T14:45:14.941Z,11.40
2018-11-10T14:48:47.680Z,11.40
2018-11-10T14:51:16.887Z,11.30
2018-11-10T14:53:46.055Z,11.20
2018-11-10T14:56:15.194Z,11.00
2018-11-10T14:58:44.418Z,10.90
2018-11-10T15:01:13.569Z,10.90
2018-11-10T15:03:42.743Z,10.80
2018-11-10T15:06:11.965Z,10.80
2018-11-10T15:08:41.178Z,10.60
2018-11-10T15:11:10.555Z,10.60
2018-11-10T15:13:39.873Z,10.60
2018-11-10T15:16:09.519Z,10.50
2018-11-10T15:18:38.795Z,10.50
2018-11-10T15:21:07.963Z,10.50
2018-11-10T15:23:37.251Z,10.40
2018-11-10T15:26:06.584Z,10.50
2018-11-10T15:28:35.774Z,10.40
2018-11-10T15:31:04.974Z,10.30
2018-11-10T15:33:34.169Z,10.30
2018-11-10T15:36:03.331Z,10.20
2018-11-10T15:38:32.503Z,10.20
2018-11-10T15:41:01.655Z,10.20
2018-11-10T15:43:30.828Z,10.20
2018-11-10T15:46:00.032Z,10.10
2018-11-10T15:48:29.191Z,10.10
2018-11-10T15:50:58.361Z,10.00
2018-11-10T15:53:27.559Z,10.00
2018-11-10T15:55:56.884Z,10.00
2018-11-10T15:58:26.060Z,10.00
2018-11-10T16:00:55.253Z,10.00
2018-11-10T16:03:24.427Z,9.90
2018-11-10T16:05:53.586Z,9.80
2018-11-10T16:08:22.756Z,9.80
2018-11-10T16:10:51.919Z,9.70
2018-11-10T16:13:21.106Z,9.70
2018-11-10T16:15:50.341Z,9.70
2018-11-10T16:18:20.107Z,9.70
2018-11-10T16:20:49.295Z,9.60
2018-11-10T16:23:18.442Z,9.60
2018-11-10T16:25:47.595Z,9.60
2018-11-10T16:28:16.771Z,9.50
2018-11-10T16:30:45.910Z,9.50
2018-11-10T16:33:15.094Z,9.50
2018-11-10T16:35:44.236Z,9.50
2018-11-10T16:38:13.420Z,9.40
2018-11-10T16:40:42.564Z,9.40
2018-11-10T16:43:11.741Z,9.40
2018-11-10T16:45:40.920Z,9.30
2018-11-10T16:48:10.088Z,9.30
2018-11-10T16:50:39.244Z,9.20
2018-11-10T16:53:08.462Z,9.20
2018-11-10T16:55:37.591Z,9.20
2018-11-10T16:58:07.129Z,9.10
2018-11-10T17:00:36.300Z,9.10
2018-11-10T17:03:05.610Z,9.10
2018-11-10T17:05:34.767Z,9.10
2018-11-10T17:08:03.971Z,9.00
2018-11-10T17:10:33.130Z,9.10
2018-11-10T17:13:02.303Z,9.00
2018-11-10T17:15:31.570Z,9.00
2018-11-10T17:18:00.691Z,9.00
2018-11-10T17:20:29.879Z,9.00
2018-11-10T17:22:59.034Z,9.00
2018-11-10T17:25:28.276Z,9.00
2018-11-10T17:27:57.674Z,9.00
2018-11-10T17:30:26.871Z,9.00
2018-11-10T17:32:55.984Z,8.90
2018-11-10T17:35:25.180Z,8.90
2018-11-10T17:37:54.449Z,8.90
2018-11-10T17:40:23.679Z,8.80
2018-11-10T17:42:52.819Z,8.80
2018-11-10T17:45:22.020Z,8.80
2018-11-10T17:47:51.161Z,8.80
2018-11-10T17:50:20.422Z,8.80
2018-11-10T17:52:49.702Z,8.80
2018-11-10T17:55:18.776Z,8.80
2018-11-10T17:57:48.182Z,8.80
2018-11-10T18:00:17.328Z,8.80
2018-11-10T18:02:47.543Z,8.80
2018-11-10T18:05:17.307Z,8.70
2018-11-10T18:07:46.676Z,8.80
2018-11-10T18:10:17.114Z,8.70
2018-11-10T18:12:53.061Z,8.70
2018-11-10T18:15:22.181Z,8.70
2018-11-10T18:17:51.338Z,8.70
2018-11-10T18:20:20.535Z,8.80
2018-11-10T18:22:49.684Z,8.80
2018-11-10T18:25:18.890Z,8.80
2018-11-10T18:27:48.090Z,8.70
2018-11-10T18:30:17.292Z,8.80
2018-11-10T18:32:46.569Z,8.70
2018-11-10T18:35:15.636Z,8.70
2018-11-10T18:37:44.803Z,8.70
2018-11-10T18:40:14.002Z,8.70
2018-11-10T18:42:43.164Z,8.60
2018-11-10T18:45:12.943Z,8.70
2018-11-10T18:47:42.507Z,8.60
2018-11-10T18:50:13.788Z,8.60
2018-11-10T18:52:43.084Z,8.60
2018-11-10T18:55:12.911Z,8.60
2018-11-10T18:57:42.404Z,8.60
2018-11-10T19:00:13.756Z,8.60
2018-11-10T19:02:42.888Z,8.70
2018-11-10T19:05:13.486Z,8.60
2018-11-10T19:07:42.730Z,8.60
2018-11-10T19:10:13.419Z,8.60
2018-11-10T19:15:29.842Z,8.60
2018-11-10T19:17:59.067Z,8.60
2018-11-10T19:20:28.256Z,8.60
2018-11-10T19:22:57.483Z,8.50
2018-11-10T19:32:31.053Z,8.50
2018-11-10T19:35:00.478Z,8.50
2018-11-10T19:37:30.327Z,8.50
2018-11-10T19:39:59.584Z,8.50
2018-11-10T19:43:31.743Z,8.50
2018-11-10T19:46:01.095Z,8.50
2018-11-10T19:48:30.307Z,8.50
2018-11-10T19:50:59.648Z,8.50
2018-11-10T19:53:28.689Z,8.50
2018-11-10T19:55:57.843Z,8.50
2018-11-10T19:58:26.988Z,8.40
2018-11-10T20:00:56.247Z,8.40
2018-11-10T20:03:25.351Z,8.40
2018-11-10T20:05:54.527Z,8.40
2018-11-10T20:08:23.698Z,8.40
2018-11-10T20:10:52.891Z,8.30
2018-11-10T20:13:22.059Z,8.30
2018-11-10T20:15:51.332Z,8.30
2018-11-10T20:18:20.486Z,8.30
2018-11-10T20:20:49.692Z,8.30
2018-11-10T20:23:18.850Z,8.30
2018-11-10T20:25:48.465Z,8.30
2018-11-10T20:28:17.643Z,8.30
2018-11-10T20:30:46.803Z,8.20
2018-11-10T20:33:15.971Z,8.20
2018-11-10T20:35:45.148Z,8.20
2018-11-10T20:38:14.332Z,8.20
2018-11-10T20:40:43.500Z,8.20
2018-11-10T20:43:12.676Z,8.20
2018-11-10T20:45:41.920Z,8.10
2018-11-10T20:48:11.162Z,8.10
2018-11-10T20:50:40.383Z,8.10
2018-11-10T20:53:09.568Z,8.10
2018-11-10T20:55:38.752Z,8.10
2018-11-10T20:58:07.979Z,8.00
2018-11-10T21:00:37.269Z,8.00
2018-11-10T21:03:06.382Z,8.00
2018-11-10T21:05:35.789Z,8.00
2018-11-10T21:08:05.003Z,8.00
2018-11-10T21:10:34.435Z,8.00
2018-11-10T21:13:03.639Z,8.00
2018-11-10T21:15:32.831Z,8.00
2018-11-10T21:18:02.514Z,7.90
2018-11-10T21:20:31.696Z,7.90
2018-11-10T21:23:00.870Z,7.90
2018-11-10T21:25:30.147Z,7.90
2018-11-10T21:27:59.308Z,7.90
2018-11-10T21:30:28.489Z,7.90
2018-11-10T21:32:57.667Z,7.90
2018-11-10T21:35:27.620Z,7.90
2018-11-10T21:37:56.723Z,7.90
2018-11-10T21:40:25.926Z,7.90
2018-11-10T21:42:55.105Z,7.90
2018-11-10T21:45:24.311Z,8.00
2018-11-10T21:47:53.482Z,8.00
2018-11-10T21:50:22.666Z,8.00
2018-11-10T21:52:51.840Z,8.00
2018-11-10T21:55:21.160Z,8.00
2018-11-10T21:57:50.649Z,8.00
2018-11-10T22:00:21.301Z,8.00
2018-11-10T22:02:50.784Z,8.10
2018-11-10T22:05:20.327Z,8.10
2018-11-10T22:07:49.591Z,8.10
2018-11-10T22:10:19.536Z,8.10
2018-11-10T22:12:48.743Z,8.10
2018-11-10T22:15:20.260Z,8.10
2018-11-10T22:17:49.558Z,8.10
2018-11-10T22:20:20.228Z,8.10
2018-11-10T22:22:49.428Z,8.10
2018-11-10T22:25:18.693Z,8.10
2018-11-10T22:27:49.359Z,8.10
2018-11-10T22:30:19.640Z,8.20
2018-11-10T22:32:49.251Z,8.20
2018-11-10T22:35:18.519Z,8.20
2018-11-10T22:37:47.867Z,8.20
2018-11-10T22:40:18.583Z,8.20
2018-11-10T22:42:48.037Z,8.20
2018-11-10T22:45:18.526Z,8.20
2018-11-10T22:47:47.890Z,8.20
2018-11-10T22:50:20.379Z,8.20
2018-11-10T22:52:49.559Z,8.20
2018-11-10T22:55:18.760Z,8.20
2018-11-10T22:57:47.971Z,8.20
2018-11-10T23:00:26.804Z,8.20
2018-11-10T23:02:59.421Z,8.20
2018-11-10T23:05:31.352Z,8.30
2018-11-10T23:08:02.457Z,8.30
2018-11-10T23:10:31.667Z,8.30
2018-11-10T23:13:00.871Z,8.30
2018-11-10T23:15:30.051Z,8.30
2018-11-10T23:17:59.236Z,8.30
2018-11-10T23:20:28.388Z,8.40
2018-11-10T23:22:57.640Z,8.40
2018-11-10T23:25:34.872Z,8.40
2018-11-10T23:28:04.114Z,8.40
2018-11-10T23:30:33.384Z,8.40
2018-11-10T23:33:02.648Z,8.40
2018-11-10T23:35:31.858Z,8.40
2018-11-10T23:38:01.089Z,8.40
2018-11-10T23:40:30.278Z,8.40
2018-11-10T23:42:59.451Z,8.40
2018-11-10T23:45:28.640Z,8.40
2018-11-10T23:47:57.823Z,8.40
2018-11-10T23:50:26.995Z,8.50
2018-11-10T23:52:56.167Z,8.50
2018-11-10T23:55:25.326Z,8.50
2018-11-10T23:57:54.494Z,8.50
